VVTS Airport Information

Runway Information
Runway 07R Length 12468 ft width 148 ft Elevation 24 ft Threshold 2431 ft Heading 69
Runway 25L Length 12468 ft Width 148 ft Elevation 32 ft Threshold N/A Heading 249
Runway 07L Length 10000 ft width 148 ft Elevation 24 ft Threshold N/A Heading 69
Runway 25R Length 10000 ft Width 148 ft Elevation 32 ft Threshold N/A Heading 249
Airport Frequencies
Type APP Name APP Frequency 125.5 MHZ
Type ATIS Name ATIS Frequency 128 MHZ
Type GND Name GND Frequency 121.9 MHZ
Type TWR Name TWR Frequency 118.7 MHZ
Airport Navaids
Type NDB Name Tansonnhat Frequency 343 KHZ
Type NDB Name Tansonnhat Frequency 375 KHZ
Type NDB Name Tansonnhat Frequency 326 KHZ
Type NDB Name Tansonnhat Frequency 358 KHZ
Type VOR-DME Name Tansonnhat Frequency 116700 KHZ
Airport Weather Information & NOTAM
ADDS - METARS form results

(1623 UTC 27 November 2022)
Data provider http://aviationweather.gov/metar/data/
 
METAR text: VVTS 271600Z 13004KT 9999 FEW017 27/26 Q1010 NOSIG
Conditions at: VVTS (HO CHI MINH/TANS, VN) observed 1600 UTC 27 November 2022
Temperature: 27.0°C (81°F)
Dewpoint: 26.0°C (79°F) [RH = 94%]
Pressure (altimeter): 29.82 inches Hg (1010.0 mb)
Winds: from the SE (130 degrees) at 5 MPH (4 knots; 2.1 m/s)
Visibility: 6 or more miles (10+ km)
Ceiling: at least 12,000 feet AGL
Clouds: few clouds at 1700 feet AGL
Weather: no significant weather observed at this time

METAR text: VVTS 271530Z 13005KT 9999 FEW017 27/26 Q1011 NOSIG
Conditions at: VVTS (HO CHI MINH/TANS, VN) observed 1530 UTC 27 November 2022
Temperature: 27.0°C (81°F)
Dewpoint: 26.0°C (79°F) [RH = 94%]
Pressure (altimeter): 29.85 inches Hg (1011.0 mb)
Winds: from the SE (130 degrees) at 6 MPH (5 knots; 2.6 m/s)
Visibility: 6 or more miles (10+ km)
Ceiling: at least 12,000 feet AGL
Clouds: few clouds at 1700 feet AGL
Weather: no significant weather observed at this time

Forecast for: VVTS (HO CHI MINH/TANS, VN)
Text: TAF VVTS 271100Z 2712/2818 12008KT 9999 SCT017 SCT040
Forecast period: 1200 UTC 27 November 2022 to 1800 UTC 28 November 2022
Forecast type: FROM: standard forecast or significant change
Winds: from the ESE (120 degrees) at 9 MPH (8 knots; 4.1 m/s)
Visibility: 6 or more miles (10+ km)
Ceiling: at least 12,000 feet AGL
Clouds: scattered clouds at 1700 feet AGL
scattered clouds at 4000 feet AGL
Weather: no significant weather forecast for this period
Text: TEMPO 2808/2812 5000 TSRA SCT015 FEW017CB BKN040
Forecast period: 0800 to 1200 UTC 28 November 2022
Forecast type: TEMPORARY: The following changes expected for less than half the time period
Visibility: 3 miles (5 km)
Ceiling: 4000 feet AGL
Clouds: scattered clouds at 1500 feet AGL
few clouds at 1700 feet AGL
broken clouds at 4000 feet AGL
Weather: TSRA  (rain associated with thunderstorm(s))